Peleus — V2FV2 — position and weather

sailwx.info

Track history (hours):
 
Tides and Currents Weather Stations Pressure Air Temp Water Temp Dewpoint Dewpoint Depression Visibility Wind Speed Wind Dir Waves Ship Positions

Peleus

Last reported at 2016-Dec-03 17:17 UTC. Time now 2016-Dec-05 12:32 UTC.
Position N 49°43' W 003°38'.

Length 88 m; draft 5.7 m.

Type: Cargo ship. MMSI: 305810000.

Date/timePositionNaut miles runAvg speedWind from/ knotsBaromVisibWave heightAir tempDewpointWater temp
2016-Dec-03 17:17N 49°43' W 003°38'7 9.5
2016-Dec-03 16:33N 49°46' W 003°28'1010.2
2016-Dec-03 15:34N 49°52' W 003°15'1110.8
2016-Dec-03 14:34N 49°57' W 003°00'1010.4
2016-Dec-03 13:34N 50°01' W 002°46'94 9.1
2016-Dec-03 03:16N 50°27' W 000°25'811.3
2016-Dec-03 02:33N 50°30' W 000°13'1110.6
2016-Dec-03 01:31N 50°32' E 000°04'9 9.8
2016-Dec-03 00:33N 50°35' E 000°18'37 9.2
2016-Dec-02 20:32N 50°54' E 001°08'1211.8
2016-Dec-02 19:33N 51°01' E 001°23'1111.4
2016-Dec-02 18:33N 51°09' E 001°36'1010.0
2016-Dec-02 17:34N 51°16' E 001°48'9 8.8
2016-Dec-02 16:34N 51°22' E 001°57'7 7.1
2016-Dec-02 15:33N 51°23' E 002°08'8 8.1
2016-Dec-02 14:33N 51°22' E 002°21'8 7.8
2016-Dec-02 13:33N 51°23' E 002°33'7 7.3
2016-Dec-02 12:33N 51°22' E 002°45'9 9.5
2016-Dec-02 11:34N 51°24' E 002°60'10 9.7
2016-Dec-02 10:34N 51°25' E 003°15'1010.1
2016-Dec-02 09:33N 51°26' E 003°31'9 8.8
2016-Dec-02 08:33N 51°22' E 003°45'4 3.9
2016-Dec-02 07:34N 51°20' E 003°49'3 3.1
2016-Dec-02 06:31N 51°16' E 003°51'0 0.0
2016-Dec-02 05:31N 51°16' E 003°51'0 0.0
2016-Dec-02 04:31N 51°16' E 003°51'0 0.0
2016-Dec-02 03:33N 51°16' E 003°51'0 0.0
2016-Dec-02 02:33N 51°16' E 003°51'0 0.0
2016-Dec-02 01:33N 51°16' E 003°51'0 0.0
2016-Dec-02 00:34N 51°16' E 003°51'0 0.0
2016-Dec-01 23:33N 51°16' E 003°51'0 0.0
2016-Dec-01 22:33N 51°16' E 003°51'0 0.0
2016-Dec-01 21:33N 51°16' E 003°51'0 0.0
2016-Dec-01 20:33N 51°16' E 003°51'0 0.0
2016-Dec-01 19:33N 51°16' E 003°51'0 0.0
2016-Dec-01 18:33N 51°16' E 003°51'0 0.0
2016-Dec-01 17:33N 51°16' E 003°51'0 0.0
2016-Dec-01 16:33N 51°16' E 003°51'1 1.5
2016-Dec-01 15:33N 51°15' E 003°49'6 6.3
2016-Dec-01 14:33N 51°09' E 003°47'0 0.0
2016-Dec-01 13:30N 51°09' E 003°47'0 0.0
2016-Dec-01 12:30N 51°09' E 003°47'0 0.0
2016-Dec-01 11:33N 51°09' E 003°47'0 0.0
2016-Dec-01 10:27N 51°09' E 003°47'0 0.0
2016-Dec-01 09:30N 51°09' E 003°47'0 0.0
2016-Dec-01 08:33N 51°09' E 003°47'0 0.0
2016-Dec-01 07:30N 51°09' E 003°47'0 0.0
2016-Dec-01 06:33N 51°09' E 003°47'0 0.0
2016-Dec-01 05:33N 51°09' E 003°47'0 0.0
2016-Dec-01 04:33N 51°09' E 003°47'0 0.0
2016-Dec-01 03:33N 51°09' E 003°47'0 0.0
2016-Dec-01 02:33N 51°09' E 003°47'0 0.0
2016-Dec-01 01:33N 51°09' E 003°47'0 0.0
2016-Dec-01 00:33N 51°09' E 003°47'0 0.0
2016-Nov-30 23:33N 51°09' E 003°47'0 0.0
2016-Nov-30 22:33N 51°09' E 003°47'0 0.0
2016-Nov-30 21:33N 51°09' E 003°47'0 0.0
2016-Nov-30 20:33N 51°09' E 003°47'0 0.0
2016-Nov-30 19:33N 51°09' E 003°47'0 0.0
2016-Nov-30 18:33N 51°09' E 003°47'0 0.0
2016-Nov-30 17:33N 51°09' E 003°47'0 0.0
2016-Nov-30 16:33N 51°09' E 003°47'0 0.0
2016-Nov-30 15:33N 51°09' E 003°47'0 0.0
2016-Nov-30 14:30N 51°09' E 003°47'0 0.0
2016-Nov-30 13:33N 51°09' E 003°47'0 0.0
2016-Nov-30 12:33N 51°09' E 003°47'0 0.0
2016-Nov-30 11:33N 51°09' E 003°47'0 0.0
2016-Nov-30 10:33N 51°09' E 003°47'0 0.0
2016-Nov-30 09:30N 51°09' E 003°47'0 0.0
2016-Nov-30 08:24N 51°09' E 003°47'0 0.0
2016-Nov-30 07:33N 51°09' E 003°47'0 0.0
2016-Nov-30 06:33N 51°09' E 003°47'0 0.0
2016-Nov-30 05:33N 51°09' E 003°47'0 0.0
2016-Nov-30 04:33N 51°09' E 003°47'0 0.0
2016-Nov-30 03:33N 51°09' E 003°47'0 0.0
2016-Nov-30 02:30N 51°09' E 003°47'0 0.0
2016-Nov-30 01:21N 51°09' E 003°47'0 0.0
2016-Nov-30 00:33N 51°09' E 003°47'0 0.0
2016-Nov-29 23:30N 51°09' E 003°47'0 0.0
2016-Nov-29 22:33N 51°09' E 003°47'0 0.0
2016-Nov-29 21:33N 51°09' E 003°47'0 0.2
2016-Nov-29 20:34N 51°09' E 003°47'0 0.4
2016-Nov-29 19:32N 51°09' E 003°47'0 0.0
2016-Nov-29 18:33N 51°09' E 003°47'0 0.0
2016-Nov-29 17:32N 51°09' E 003°47'0 0.0
2016-Nov-29 16:32N 51°09' E 003°47'0 0.0
2016-Nov-29 15:33N 51°09' E 003°47'0 0.0
2016-Nov-29 14:32N 51°09' E 003°47'0 0.0
2016-Nov-29 13:26N 51°09' E 003°47'0 0.0
2016-Nov-29 12:32N 51°09' E 003°47'0 0.0
2016-Nov-29 11:32N 51°09' E 003°47'0 0.0
2016-Nov-29 10:33N 51°09' E 003°47'0 0.0
2016-Nov-29 09:33N 51°09' E 003°47'0 0.0
2016-Nov-29 08:21N 51°09' E 003°47'0 0.0
2016-Nov-29 07:33N 51°09' E 003°47'0 0.0
2016-Nov-29 06:33N 51°09' E 003°47'0 0.0
2016-Nov-29 05:27N 51°09' E 003°47'0 0.0
2016-Nov-29 03:23N 51°09' E 003°47'0 0.0
2016-Nov-29 02:29N 51°09' E 003°47'0 0.0
2016-Nov-29 01:29N 51°09' E 003°47'0 0.0
2016-Nov-29 00:33N 51°09' E 003°47'0 0.0
2016-Nov-28 23:17N 51°09' E 003°47'0 0.0
2016-Nov-28 22:27N 51°09' E 003°47'0 0.0
2016-Nov-28 21:33N 51°09' E 003°47'2 2.5
2016-Nov-28 20:34N 51°11' E 003°48'7 6.5
2016-Nov-28 19:34N 51°17' E 003°50'2 2.3
2016-Nov-28 18:33N 51°20' E 003°49'3 3.2
2016-Nov-28 17:33N 51°22' E 003°45'7 6.8
2016-Nov-28 16:33N 51°25' E 003°36'6 5.8
2016-Nov-28 15:33N 51°25' E 003°27'6 6.1
2016-Nov-28 14:33N 51°24' E 003°17'7 7.1
2016-Nov-28 13:33N 51°24' E 003°05'8 8.3
2016-Nov-28 12:34N 51°22' E 002°52'8 7.6
2016-Nov-28 11:33N 51°24' E 002°41'2 2.0
2016-Nov-28 10:32N 51°25' E 002°38'0 0.0
2016-Nov-28 09:32N 51°25' E 002°38'0 0.1
2016-Nov-28 08:33N 51°25' E 002°38'6 5.8
2016-Nov-28 07:33N 51°22' E 002°31'7 6.6
2016-Nov-28 06:33N 51°19' E 002°21'7 6.7
2016-Nov-28 05:33N 51°16' E 002°12'6 6.0
2016-Nov-28 04:33N 51°13' E 002°04'6 6.3
2016-Nov-28 03:33N 51°09' E 001°55'6 6.4
2016-Nov-28 02:33N 51°06' E 001°47'7 7.0
2016-Nov-28 01:29N 51°00' E 001°38'8 8.2
2016-Nov-28 00:27N 50°54' E 001°29'67 7.4
2016-Nov-27 15:29N 50°18' E 000°01'6 5.7
2016-Nov-27 14:29N 50°16' W 000°07'29 6.9
2016-Nov-27 10:14N 50°09' W 000°51'6 8.6
2016-Nov-27 09:33N 50°07' W 001°00'10 9.7
2016-Nov-27 08:33N 50°05' W 001°15'1110.8
2016-Nov-27 07:33N 50°02' W 001°31'1211.7
2016-Nov-27 06:33N 49°59' W 001°49'1211.7
2016-Nov-27 05:33N 49°57' W 002°06'133 8.6
2016-Nov-26 14:04N 48°57' W 005°08'510.3
2016-Nov-26 13:33N 48°54' W 005°15'28 9.4
2016-Nov-26 10:33N 48°32' W 005°42'19 9.6
2016-Nov-26 08:33N 48°14' W 005°32'32 9.2
2016-Nov-26 05:07N 47°46' W 005°10'5 9.1
2016-Nov-26 04:33N 47°42' W 005°06'280 9.6
2016-Nov-24 23:32N 43°43' W 001°38'10 9.9
2016-Nov-24 22:33N 43°34' W 001°33'3 3.1
2016-Nov-24 21:32N 43°32' W 001°30'0 0.0
2016-Nov-24 20:23N 43°32' W 001°30'0 0.0
2016-Nov-24 19:29N 43°32' W 001°30'0 0.0
2016-Nov-24 18:29N 43°32' W 001°30'0 0.0
2016-Nov-24 17:32N 43°32' W 001°30'0 0.0
2016-Nov-24 16:26N 43°32' W 001°30'0 0.0
2016-Nov-24 15:32N 43°32' W 001°30'0 0.0
2016-Nov-24 14:32N 43°32' W 001°30'0 0.0
2016-Nov-24 13:32N 43°32' W 001°30'0 0.0
2016-Nov-24 12:29N 43°32' W 001°30'0 0.0
2016-Nov-24 11:32N 43°32' W 001°30'0 0.0
2016-Nov-24 10:20N 43°32' W 001°30'0 0.0
2016-Nov-24 09:32N 43°32' W 001°30'0 0.0
2016-Nov-24 08:32N 43°32' W 001°30'0 0.0
2016-Nov-24 07:29N 43°32' W 001°30'0 0.0
2016-Nov-24 06:32N 43°32' W 001°30'0 0.0
2016-Nov-24 05:29N 43°32' W 001°30'0 0.0
2016-Nov-24 04:32N 43°32' W 001°30'0 0.0
2016-Nov-24 03:32N 43°32' W 001°30'0 0.0
2016-Nov-24 02:32N 43°32' W 001°30'0 0.0
2016-Nov-24 01:32N 43°32' W 001°30'0 0.0
2016-Nov-24 00:32N 43°32' W 001°30'0 0.0
2016-Nov-23 23:32N 43°32' W 001°30'0 0.0
2016-Nov-23 22:32N 43°32' W 001°30'0 0.0
2016-Nov-23 21:32N 43°32' W 001°30'0 0.0
2016-Nov-23 20:32N 43°32' W 001°30'0 0.0
2016-Nov-23 19:32N 43°32' W 001°30'0 0.0
2016-Nov-23 18:32N 43°32' W 001°30'0 0.0
2016-Nov-23 17:32N 43°32' W 001°30'  
Track history (hours):
 
Tides and Currents Weather Stations Pressure Air Temp Water Temp Dewpoint Dewpoint Depression Visibility Wind Speed Wind Dir Waves Ship Positions

Peleus

Last reported at 2016-Dec-03 17:17 UTC. Time now 2016-Dec-05 12:32 UTC.
Position N 49°43' W 003°38'.

Length 88 m; draft 5.7 m.

Type: Cargo ship. MMSI: 305810000.

Date/timePositionNaut miles runAvg speedWind from/ knotsBaromVisibWave heightAir tempDewpointWater temp
2016-Dec-03 17:17N 49°43' W 003°38'7 9.5
2016-Dec-03 16:33N 49°46' W 003°28'1010.2
2016-Dec-03 15:34N 49°52' W 003°15'1110.8
2016-Dec-03 14:34N 49°57' W 003°00'1010.4
2016-Dec-03 13:34N 50°01' W 002°46'94 9.1
2016-Dec-03 03:16N 50°27' W 000°25'811.3
2016-Dec-03 02:33N 50°30' W 000°13'1110.6
2016-Dec-03 01:31N 50°32' E 000°04'9 9.8
2016-Dec-03 00:33N 50°35' E 000°18'37 9.2
2016-Dec-02 20:32N 50°54' E 001°08'1211.8
2016-Dec-02 19:33N 51°01' E 001°23'1111.4
2016-Dec-02 18:33N 51°09' E 001°36'1010.0
2016-Dec-02 17:34N 51°16' E 001°48'9 8.8
2016-Dec-02 16:34N 51°22' E 001°57'7 7.1
2016-Dec-02 15:33N 51°23' E 002°08'8 8.1
2016-Dec-02 14:33N 51°22' E 002°21'8 7.8
2016-Dec-02 13:33N 51°23' E 002°33'7 7.3
2016-Dec-02 12:33N 51°22' E 002°45'9 9.5
2016-Dec-02 11:34N 51°24' E 002°60'10 9.7
2016-Dec-02 10:34N 51°25' E 003°15'1010.1
2016-Dec-02 09:33N 51°26' E 003°31'9 8.8
2016-Dec-02 08:33N 51°22' E 003°45'4 3.9
2016-Dec-02 07:34N 51°20' E 003°49'3 3.1
2016-Dec-02 06:31N 51°16' E 003°51'0 0.0
2016-Dec-02 05:31N 51°16' E 003°51'0 0.0
2016-Dec-02 04:31N 51°16' E 003°51'0 0.0
2016-Dec-02 03:33N 51°16' E 003°51'0 0.0
2016-Dec-02 02:33N 51°16' E 003°51'0 0.0
2016-Dec-02 01:33N 51°16' E 003°51'0 0.0
2016-Dec-02 00:34N 51°16' E 003°51'0 0.0
2016-Dec-01 23:33N 51°16' E 003°51'0 0.0
2016-Dec-01 22:33N 51°16' E 003°51'0 0.0
2016-Dec-01 21:33N 51°16' E 003°51'0 0.0
2016-Dec-01 20:33N 51°16' E 003°51'0 0.0
2016-Dec-01 19:33N 51°16' E 003°51'0 0.0
2016-Dec-01 18:33N 51°16' E 003°51'0 0.0
2016-Dec-01 17:33N 51°16' E 003°51'0 0.0
2016-Dec-01 16:33N 51°16' E 003°51'1 1.5
2016-Dec-01 15:33N 51°15' E 003°49'6 6.3
2016-Dec-01 14:33N 51°09' E 003°47'0 0.0
2016-Dec-01 13:30N 51°09' E 003°47'0 0.0
2016-Dec-01 12:30N 51°09' E 003°47'0 0.0
2016-Dec-01 11:33N 51°09' E 003°47'0 0.0
2016-Dec-01 10:27N 51°09' E 003°47'0 0.0
2016-Dec-01 09:30N 51°09' E 003°47'0 0.0
2016-Dec-01 08:33N 51°09' E 003°47'0 0.0
2016-Dec-01 07:30N 51°09' E 003°47'0 0.0
2016-Dec-01 06:33N 51°09' E 003°47'0 0.0
2016-Dec-01 05:33N 51°09' E 003°47'0 0.0
2016-Dec-01 04:33N 51°09' E 003°47'0 0.0
2016-Dec-01 03:33N 51°09' E 003°47'0 0.0
2016-Dec-01 02:33N 51°09' E 003°47'0 0.0
2016-Dec-01 01:33N 51°09' E 003°47'0 0.0
2016-Dec-01 00:33N 51°09' E 003°47'0 0.0
2016-Nov-30 23:33N 51°09' E 003°47'0 0.0
2016-Nov-30 22:33N 51°09' E 003°47'0 0.0
2016-Nov-30 21:33N 51°09' E 003°47'0 0.0
2016-Nov-30 20:33N 51°09' E 003°47'0 0.0
2016-Nov-30 19:33N 51°09' E 003°47'0 0.0
2016-Nov-30 18:33N 51°09' E 003°47'0 0.0
2016-Nov-30 17:33N 51°09' E 003°47'0 0.0
2016-Nov-30 16:33N 51°09' E 003°47'0 0.0
2016-Nov-30 15:33N 51°09' E 003°47'0 0.0
2016-Nov-30 14:30N 51°09' E 003°47'0 0.0
2016-Nov-30 13:33N 51°09' E 003°47'0 0.0
2016-Nov-30 12:33N 51°09' E 003°47'0 0.0
2016-Nov-30 11:33N 51°09' E 003°47'0 0.0
2016-Nov-30 10:33N 51°09' E 003°47'0 0.0
2016-Nov-30 09:30N 51°09' E 003°47'0 0.0
2016-Nov-30 08:24N 51°09' E 003°47'0 0.0
2016-Nov-30 07:33N 51°09' E 003°47'0 0.0
2016-Nov-30 06:33N 51°09' E 003°47'0 0.0
2016-Nov-30 05:33N 51°09' E 003°47'0 0.0
2016-Nov-30 04:33N 51°09' E 003°47'0 0.0
2016-Nov-30 03:33N 51°09' E 003°47'0 0.0
2016-Nov-30 02:30N 51°09' E 003°47'0 0.0
2016-Nov-30 01:21N 51°09' E 003°47'0 0.0
2016-Nov-30 00:33N 51°09' E 003°47'0 0.0
2016-Nov-29 23:30N 51°09' E 003°47'0 0.0
2016-Nov-29 22:33N 51°09' E 003°47'0 0.0
2016-Nov-29 21:33N 51°09' E 003°47'0 0.2
2016-Nov-29 20:34N 51°09' E 003°47'0 0.4
2016-Nov-29 19:32N 51°09' E 003°47'0 0.0
2016-Nov-29 18:33N 51°09' E 003°47'0 0.0
2016-Nov-29 17:32N 51°09' E 003°47'0 0.0
2016-Nov-29 16:32N 51°09' E 003°47'0 0.0
2016-Nov-29 15:33N 51°09' E 003°47'0 0.0
2016-Nov-29 14:32N 51°09' E 003°47'0 0.0
2016-Nov-29 13:26N 51°09' E 003°47'0 0.0
2016-Nov-29 12:32N 51°09' E 003°47'0 0.0
2016-Nov-29 11:32N 51°09' E 003°47'0 0.0
2016-Nov-29 10:33N 51°09' E 003°47'0 0.0
2016-Nov-29 09:33N 51°09' E 003°47'0 0.0
2016-Nov-29 08:21N 51°09' E 003°47'0 0.0
2016-Nov-29 07:33N 51°09' E 003°47'0 0.0
2016-Nov-29 06:33N 51°09' E 003°47'0 0.0
2016-Nov-29 05:27N 51°09' E 003°47'0 0.0
2016-Nov-29 03:23N 51°09' E 003°47'0 0.0
2016-Nov-29 02:29N 51°09' E 003°47'0 0.0
2016-Nov-29 01:29N 51°09' E 003°47'0 0.0
2016-Nov-29 00:33N 51°09' E 003°47'0 0.0
2016-Nov-28 23:17N 51°09' E 003°47'0 0.0
2016-Nov-28 22:27N 51°09' E 003°47'0 0.0
2016-Nov-28 21:33N 51°09' E 003°47'2 2.5
2016-Nov-28 20:34N 51°11' E 003°48'7 6.5
2016-Nov-28 19:34N 51°17' E 003°50'2 2.3
2016-Nov-28 18:33N 51°20' E 003°49'3 3.2
2016-Nov-28 17:33N 51°22' E 003°45'7 6.8
2016-Nov-28 16:33N 51°25' E 003°36'6 5.8
2016-Nov-28 15:33N 51°25' E 003°27'6 6.1
2016-Nov-28 14:33N 51°24' E 003°17'7 7.1
2016-Nov-28 13:33N 51°24' E 003°05'8 8.3
2016-Nov-28 12:34N 51°22' E 002°52'8 7.6
2016-Nov-28 11:33N 51°24' E 002°41'2 2.0
2016-Nov-28 10:32N 51°25' E 002°38'0 0.0
2016-Nov-28 09:32N 51°25' E 002°38'0 0.1
2016-Nov-28 08:33N 51°25' E 002°38'6 5.8
2016-Nov-28 07:33N 51°22' E 002°31'7 6.6
2016-Nov-28 06:33N 51°19' E 002°21'7 6.7
2016-Nov-28 05:33N 51°16' E 002°12'6 6.0
2016-Nov-28 04:33N 51°13' E 002°04'6 6.3
2016-Nov-28 03:33N 51°09' E 001°55'6 6.4
2016-Nov-28 02:33N 51°06' E 001°47'7 7.0
2016-Nov-28 01:29N 51°00' E 001°38'8 8.2
2016-Nov-28 00:27N 50°54' E 001°29'67 7.4
2016-Nov-27 15:29N 50°18' E 000°01'6 5.7
2016-Nov-27 14:29N 50°16' W 000°07'29 6.9
2016-Nov-27 10:14N 50°09' W 000°51'6 8.6
2016-Nov-27 09:33N 50°07' W 001°00'10 9.7
2016-Nov-27 08:33N 50°05' W 001°15'1110.8
2016-Nov-27 07:33N 50°02' W 001°31'1211.7
2016-Nov-27 06:33N 49°59' W 001°49'1211.7
2016-Nov-27 05:33N 49°57' W 002°06'133 8.6
2016-Nov-26 14:04N 48°57' W 005°08'510.3
2016-Nov-26 13:33N 48°54' W 005°15'28 9.4
2016-Nov-26 10:33N 48°32' W 005°42'19 9.6
2016-Nov-26 08:33N 48°14' W 005°32'32 9.2
2016-Nov-26 05:07N 47°46' W 005°10'5 9.1
2016-Nov-26 04:33N 47°42' W 005°06'280 9.6
2016-Nov-24 23:32N 43°43' W 001°38'10 9.9
2016-Nov-24 22:33N 43°34' W 001°33'3 3.1
2016-Nov-24 21:32N 43°32' W 001°30'0 0.0
2016-Nov-24 20:23N 43°32' W 001°30'0 0.0
2016-Nov-24 19:29N 43°32' W 001°30'0 0.0
2016-Nov-24 18:29N 43°32' W 001°30'0 0.0
2016-Nov-24 17:32N 43°32' W 001°30'0 0.0
2016-Nov-24 16:26N 43°32' W 001°30'0 0.0
2016-Nov-24 15:32N 43°32' W 001°30'0 0.0
2016-Nov-24 14:32N 43°32' W 001°30'0 0.0
2016-Nov-24 13:32N 43°32' W 001°30'0 0.0
2016-Nov-24 12:29N 43°32' W 001°30'0 0.0
2016-Nov-24 11:32N 43°32' W 001°30'0 0.0
2016-Nov-24 10:20N 43°32' W 001°30'0 0.0
2016-Nov-24 09:32N 43°32' W 001°30'0 0.0
2016-Nov-24 08:32N 43°32' W 001°30'0 0.0
2016-Nov-24 07:29N 43°32' W 001°30'0 0.0
2016-Nov-24 06:32N 43°32' W 001°30'0 0.0
2016-Nov-24 05:29N 43°32' W 001°30'0 0.0
2016-Nov-24 04:32N 43°32' W 001°30'0 0.0
2016-Nov-24 03:32N 43°32' W 001°30'0 0.0
2016-Nov-24 02:32N 43°32' W 001°30'0 0.0
2016-Nov-24 01:32N 43°32' W 001°30'0 0.0
2016-Nov-24 00:32N 43°32' W 001°30'0 0.0
2016-Nov-23 23:32N 43°32' W 001°30'0 0.0
2016-Nov-23 22:32N 43°32' W 001°30'0 0.0
2016-Nov-23 21:32N 43°32' W 001°30'0 0.0
2016-Nov-23 20:32N 43°32' W 001°30'0 0.0
2016-Nov-23 19:32N 43°32' W 001°30'0 0.0
2016-Nov-23 18:32N 43°32' W 001°30'0 0.0
2016-Nov-23 17:32N 43°32' W 001°30'  

Dump ship's entire track history